createdAt,value
2018-04-06T00:02:17.695Z,86.10
2018-04-06T00:04:46.688Z,86.90
2018-04-06T00:07:14.916Z,86.80
2018-04-06T00:09:43.149Z,86.30
2018-04-06T00:12:11.376Z,86.30
2018-04-06T00:14:39.965Z,86.50
2018-04-06T00:17:08.200Z,86.60
2018-04-06T00:19:36.443Z,86.50
2018-04-06T00:22:04.665Z,86.80
2018-04-06T00:24:33.673Z,87.20
2018-04-06T00:27:01.904Z,87.10
2018-04-06T00:29:30.144Z,87.80
2018-04-06T00:31:59.128Z,87.90
2018-04-06T00:34:28.133Z,87.80
2018-04-06T00:36:57.120Z,88.30
2018-04-06T00:39:26.120Z,87.90
2018-04-06T00:41:55.142Z,87.80
2018-04-06T00:44:24.114Z,88.20
2018-04-06T00:46:52.387Z,88.10
2018-04-06T00:49:20.628Z,88.60
2018-04-06T00:51:49.620Z,88.80
2018-04-06T00:54:18.629Z,88.80
2018-04-06T00:56:47.625Z,88.30
2018-04-06T00:59:16.625Z,87.80
2018-04-06T01:01:44.844Z,87.80
2018-04-06T01:04:13.095Z,89.00
2018-04-06T01:06:41.308Z,89.80
2018-04-06T01:09:09.565Z,89.20
2018-04-06T01:11:37.786Z,87.90
2018-04-06T01:14:06.768Z,88.70
2018-04-06T01:16:35.012Z,88.70
2018-04-06T01:19:03.232Z,89.10
2018-04-06T01:21:31.476Z,89.30
2018-04-06T01:24:00.468Z,89.50
2018-04-06T01:26:29.469Z,89.00
2018-04-06T01:28:58.455Z,89.30
2018-04-06T01:31:27.483Z,89.20
2018-04-06T01:33:55.713Z,89.20
2018-04-06T01:36:24.720Z,89.50
2018-04-06T01:38:53.712Z,89.10
2018-04-06T01:41:22.717Z,89.50
2018-04-06T01:43:50.941Z,89.50
2018-04-06T01:46:19.228Z,89.50
2018-04-06T01:48:47.460Z,89.60
2018-04-06T01:51:15.703Z,89.50
2018-04-06T01:53:43.924Z,89.50
2018-04-06T01:56:12.166Z,90.00
2018-04-06T01:58:40.388Z,89.30
2018-04-06T02:01:08.619Z,88.90
2018-04-06T02:03:36.853Z,88.60
2018-04-06T02:06:05.096Z,88.80
2018-04-06T02:08:33.315Z,89.10
2018-04-06T02:11:01.561Z,89.00
2018-04-06T02:13:29.788Z,89.70
2018-04-06T02:15:58.019Z,90.00
2018-04-06T02:18:26.240Z,90.00
2018-04-06T02:20:54.476Z,90.00
2018-04-06T02:23:23.469Z,90.00
2018-04-06T02:25:52.468Z,90.20
2018-04-06T02:28:20.706Z,90.20
2018-04-06T02:30:48.948Z,90.40
2018-04-06T02:33:17.178Z,90.40
2018-04-06T02:35:46.188Z,90.10
2018-04-06T02:38:14.409Z,90.10
2018-04-06T02:40:42.656Z,90.10
2018-04-06T02:43:10.885Z,90.00
2018-04-06T02:45:39.894Z,90.50
2018-04-06T02:48:08.116Z,90.50
2018-04-06T02:50:36.366Z,90.50
2018-04-06T02:53:04.606Z,90.70
2018-04-06T02:55:33.617Z,90.80
2018-04-06T02:58:01.853Z,90.70
2018-04-06T03:00:30.104Z,90.90
2018-04-06T03:02:59.170Z,90.90
2018-04-06T03:05:27.392Z,91.00
2018-04-06T03:07:55.632Z,91.00
2018-04-06T03:10:23.864Z,90.80
2018-04-06T03:12:52.122Z,90.70
2018-04-06T03:15:20.352Z,90.70
2018-04-06T03:17:48.592Z,90.70
2018-04-06T03:20:16.833Z,90.80
2018-04-06T03:22:45.072Z,90.80
2018-04-06T03:25:13.308Z,90.80
2018-04-06T03:27:41.548Z,90.70
2018-04-06T03:30:09.781Z,90.90
2018-04-06T03:32:38.030Z,90.70
2018-04-06T03:35:06.260Z,90.70
2018-04-06T03:37:34.504Z,90.90
2018-04-06T03:40:02.740Z,90.70
2018-04-06T03:42:31.744Z,90.70
2018-04-06T03:44:59.973Z,90.70
2018-04-06T03:47:28.213Z,90.80
2018-04-06T03:49:56.454Z,90.80
2018-04-06T03:52:25.456Z,91.00
2018-04-06T03:54:53.689Z,91.00
2018-04-06T03:57:21.932Z,91.10
2018-04-06T03:59:50.155Z,91.20
2018-04-06T04:02:19.192Z,91.40
2018-04-06T04:04:47.425Z,91.40
2018-04-06T04:07:16.434Z,91.10
2018-04-06T04:09:44.663Z,91.10
2018-04-06T04:12:12.907Z,91.50
2018-04-06T04:14:41.140Z,91.70
2018-04-06T04:17:10.163Z,91.60
2018-04-06T04:19:38.401Z,91.60
2018-04-06T04:22:07.419Z,91.40
2018-04-06T04:24:35.649Z,91.40
2018-04-06T04:27:03.909Z,91.30
2018-04-06T04:29:32.132Z,90.90
2018-04-06T04:32:00.370Z,90.90
2018-04-06T04:34:28.629Z,91.10
2018-04-06T04:36:56.852Z,91.00
2018-04-06T04:39:25.085Z,90.90
2018-04-06T04:41:53.328Z,91.00
2018-04-06T04:44:21.563Z,91.20
2018-04-06T04:46:50.583Z,91.50
2018-04-06T04:49:18.817Z,91.10
2018-04-06T04:51:47.051Z,91.20
2018-04-06T04:54:15.306Z,91.20
2018-04-06T04:56:43.540Z,91.30
2018-04-06T04:59:11.786Z,91.20
2018-04-06T05:01:40.009Z,91.40
2018-04-06T05:04:08.661Z,91.30
2018-04-06T05:06:36.861Z,91.30
2018-04-06T05:09:05.817Z,91.40
2018-04-06T05:11:34.040Z,91.30
2018-04-06T05:14:02.280Z,91.40
2018-04-06T05:16:31.284Z,91.40
2018-04-06T05:19:00.298Z,91.70
2018-04-06T05:21:28.544Z,91.70
2018-04-06T05:23:57.553Z,91.80
2018-04-06T05:26:25.785Z,91.80
2018-04-06T05:28:54.021Z,92.10
2018-04-06T05:31:22.263Z,92.20
2018-04-06T05:33:51.278Z,91.80
2018-04-06T05:36:19.516Z,91.80
2018-04-06T05:38:48.613Z,92.20
2018-04-06T05:41:16.763Z,92.20
2018-04-06T05:43:45.267Z,92.20
2018-04-06T05:46:13.488Z,91.90
2018-04-06T05:48:41.729Z,91.70
2018-04-06T05:51:09.961Z,91.60
2018-04-06T05:53:38.205Z,91.50
2018-04-06T05:56:06.437Z,91.60
2018-04-06T05:58:35.436Z,91.70
2018-04-06T06:01:03.664Z,91.70
2018-04-06T06:03:31.893Z,91.60
2018-04-06T06:06:00.125Z,91.70
2018-04-06T06:08:28.366Z,91.80
2018-04-06T06:10:56.583Z,92.00
2018-04-06T06:13:25.593Z,91.50
2018-04-06T06:15:54.585Z,91.80
2018-04-06T06:18:23.580Z,91.90
2018-04-06T06:20:51.808Z,91.90
2018-04-06T06:23:20.048Z,91.60
2018-04-06T06:25:48.273Z,91.30
2018-04-06T06:28:16.533Z,91.00
2018-04-06T06:30:44.760Z,91.00
2018-04-06T06:33:13.012Z,90.60
2018-04-06T06:35:42.012Z,90.20
2018-04-06T06:38:10.240Z,90.20
2018-04-06T06:40:38.486Z,90.00
2018-04-06T06:43:06.710Z,89.30
2018-04-06T06:45:34.941Z,89.00
2018-04-06T06:48:03.165Z,87.00
2018-04-06T06:50:32.168Z,84.90
2018-04-06T06:53:00.391Z,84.90
2018-04-06T06:55:28.632Z,83.40
2018-04-06T06:57:56.851Z,80.90
2018-04-06T07:00:25.093Z,80.90
2018-04-06T07:02:53.396Z,79.90
2018-04-06T07:05:21.633Z,79.50
2018-04-06T07:07:49.868Z,79.20
2018-04-06T07:10:18.916Z,78.10
2018-04-06T07:12:47.101Z,77.60
2018-04-06T07:15:15.344Z,77.70
2018-04-06T07:17:43.569Z,76.50
2018-04-06T07:20:11.809Z,77.10
2018-04-06T07:22:40.045Z,76.80
2018-04-06T07:25:08.287Z,74.50
2018-04-06T07:27:36.516Z,74.20
2018-04-06T07:30:04.748Z,73.10
2018-04-06T07:32:33.837Z,72.80
2018-04-06T07:35:02.061Z,72.70
2018-04-06T07:37:30.301Z,69.90
2018-04-06T07:39:59.295Z,68.50
2018-04-06T07:42:28.304Z,68.50
2018-04-06T07:44:56.535Z,68.50
2018-04-06T07:47:24.772Z,69.20
2018-04-06T07:49:53.210Z,67.50
2018-04-06T07:52:21.503Z,68.30
2018-04-06T07:54:49.720Z,68.40
2018-04-06T07:57:17.961Z,67.60
2018-04-06T07:59:46.177Z,66.80
2018-04-06T08:02:14.426Z,65.10
2018-04-06T08:04:42.652Z,66.60
2018-04-06T08:07:11.651Z,65.90
2018-04-06T08:09:39.897Z,65.80
2018-04-06T08:12:08.129Z,65.30
2018-04-06T08:14:36.370Z,66.20
2018-04-06T08:17:05.364Z,63.20
2018-04-06T08:19:33.648Z,63.10
2018-04-06T08:22:01.877Z,62.60
2018-04-06T08:24:30.110Z,64.20
2018-04-06T08:26:58.332Z,63.30
2018-04-06T08:29:26.580Z,61.70
2018-04-06T08:31:54.809Z,62.60
2018-04-06T08:34:23.050Z,62.90
2018-04-06T08:36:51.273Z,65.40
2018-04-06T08:39:19.508Z,61.50
2018-04-06T08:41:48.499Z,62.60
2018-04-06T08:44:17.509Z,59.70
2018-04-06T08:46:46.495Z,61.30
2018-04-06T08:49:15.506Z,59.20
2018-04-06T08:51:43.732Z,59.20
2018-04-06T08:54:11.971Z,58.30
2018-04-06T08:56:40.203Z,58.50
2018-04-06T08:59:09.200Z,58.80
2018-04-06T09:01:37.428Z,58.80
2018-04-06T09:04:05.664Z,59.50
2018-04-06T09:06:33.897Z,58.40
2018-04-06T09:09:02.141Z,59.20
2018-04-06T09:11:30.359Z,55.60
2018-04-06T09:13:59.371Z,52.50
2018-04-06T09:16:27.613Z,52.50
2018-04-06T09:18:55.852Z,53.00
2018-04-06T09:21:24.084Z,51.30
2018-04-06T09:23:52.332Z,51.50
2018-04-06T09:26:20.562Z,52.30
2018-04-06T09:28:48.783Z,51.00
2018-04-06T09:31:17.786Z,48.00
2018-04-06T09:33:47.108Z,48.80
2018-04-06T09:36:17.823Z,45.10
2018-04-06T09:38:47.381Z,46.90
2018-04-06T09:41:16.301Z,46.90
2018-04-06T09:43:44.974Z,45.80
2018-04-06T09:46:13.190Z,45.40
2018-04-06T09:48:41.419Z,45.70
2018-04-06T09:51:09.659Z,42.50
2018-04-06T09:53:37.884Z,44.40
2018-04-06T09:56:06.891Z,41.60
2018-04-06T09:58:35.141Z,41.50
2018-04-06T10:01:05.955Z,41.10
2018-04-06T10:03:34.205Z,42.00
2018-04-06T10:06:02.431Z,40.80
2018-04-06T10:08:32.240Z,39.70
2018-04-06T10:11:01.259Z,38.70
2018-04-06T10:13:29.483Z,38.80
2018-04-06T10:15:57.722Z,41.20
2018-04-06T10:18:25.948Z,40.60
2018-04-06T10:20:54.954Z,36.80
2018-04-06T10:23:23.952Z,39.70
2018-04-06T10:25:52.200Z,39.70
2018-04-06T10:28:20.457Z,38.50
2018-04-06T10:30:48.697Z,39.70
2018-04-06T10:33:16.975Z,40.30
2018-04-06T10:35:45.162Z,35.20
2018-04-06T10:38:13.389Z,38.00
2018-04-06T10:40:42.408Z,37.90
2018-04-06T10:43:10.632Z,38.00
2018-04-06T10:45:38.857Z,35.40
2018-04-06T10:48:07.099Z,35.90
2018-04-06T10:50:36.097Z,36.70
2018-04-06T10:53:05.092Z,34.80
2018-04-06T10:55:33.326Z,34.80
2018-04-06T10:58:01.564Z,35.30
2018-04-06T11:00:29.797Z,33.00
2018-04-06T11:02:58.795Z,35.60
2018-04-06T11:05:27.028Z,35.70
2018-04-06T11:07:55.279Z,38.10
2018-04-06T11:10:23.508Z,33.90
2018-04-06T11:12:57.408Z,33.30
2018-04-06T11:15:26.398Z,35.30
2018-04-06T11:17:55.400Z,33.30
2018-04-06T11:20:24.400Z,33.30
2018-04-06T11:22:53.433Z,32.70
2018-04-06T11:25:21.649Z,32.60
2018-04-06T11:27:50.657Z,33.90
2018-04-06T11:30:18.890Z,33.80
2018-04-06T11:32:47.133Z,30.00
2018-04-06T11:35:15.353Z,33.30
2018-04-06T11:37:43.588Z,29.60
2018-04-06T11:40:11.816Z,31.30
2018-04-06T11:42:40.828Z,27.30
2018-04-06T11:45:09.068Z,27.30
2018-04-06T11:47:37.429Z,28.80
2018-04-06T11:50:05.629Z,32.00
2018-04-06T11:52:34.627Z,35.40
2018-04-06T11:55:02.859Z,35.40
2018-04-06T11:57:31.092Z,30.50
2018-04-06T11:59:59.325Z,33.70
2018-04-06T12:02:27.557Z,29.80
2018-04-06T12:04:55.800Z,30.70
2018-04-06T12:07:24.035Z,31.70
2018-04-06T12:09:52.272Z,33.40
2018-04-06T12:12:20.500Z,34.30
2018-04-06T12:14:49.508Z,33.20
2018-04-06T12:17:17.734Z,33.00
2018-04-06T12:19:45.979Z,32.90
2018-04-06T12:22:14.213Z,37.40
2018-04-06T12:24:42.448Z,35.80
2018-04-06T12:27:10.682Z,38.40
2018-04-06T12:29:39.711Z,36.00
2018-04-06T12:32:07.921Z,36.00
2018-04-06T12:34:36.177Z,37.40
2018-04-06T12:37:04.404Z,38.10
2018-04-06T12:39:32.644Z,38.90
2018-04-06T12:42:01.642Z,37.30
2018-04-06T12:44:30.645Z,36.50
2018-04-06T12:46:59.641Z,41.20
2018-04-06T12:49:28.645Z,37.00
2018-04-06T12:51:56.876Z,37.10
2018-04-06T12:54:25.104Z,38.20
2018-04-06T12:56:53.344Z,35.10
2018-04-06T12:59:22.344Z,36.30
2018-04-06T13:01:50.568Z,36.30
2018-04-06T13:04:19.185Z,34.90
2018-04-06T13:06:47.403Z,36.30
2018-04-06T13:09:15.649Z,34.50
2018-04-06T13:11:44.635Z,38.50
2018-04-06T13:14:12.872Z,38.50
2018-04-06T13:16:41.109Z,37.40
2018-04-06T13:19:09.411Z,35.00
2018-04-06T13:21:37.707Z,32.30
2018-04-06T13:24:05.932Z,36.20
2018-04-06T13:26:34.211Z,37.40
2018-04-06T13:29:02.440Z,32.70
2018-04-06T13:31:31.451Z,35.70
2018-04-06T13:33:59.669Z,35.70
2018-04-06T13:36:27.917Z,33.30
2018-04-06T13:38:56.148Z,35.60
2018-04-06T13:41:24.385Z,34.10
2018-04-06T13:43:52.617Z,34.80
2018-04-06T13:46:20.869Z,32.70
2018-04-06T13:48:49.085Z,33.20
2018-04-06T13:51:17.316Z,33.10
2018-04-06T13:53:46.307Z,31.70
2018-04-06T13:56:14.548Z,31.60
2018-04-06T13:58:42.769Z,29.40
2018-04-06T14:01:11.808Z,31.30
2018-04-06T14:03:40.016Z,31.30
2018-04-06T14:06:08.254Z,30.30
2018-04-06T14:08:36.497Z,33.40
2018-04-06T14:11:04.735Z,31.30
2018-04-06T14:13:32.963Z,30.50
2018-04-06T14:16:01.206Z,31.30
2018-04-06T14:18:30.197Z,30.80
2018-04-06T14:20:59.197Z,34.20
2018-04-06T14:23:27.459Z,34.20
2018-04-06T14:25:56.443Z,29.60
2018-04-06T14:28:25.448Z,30.90
2018-04-06T14:30:53.672Z,30.80
2018-04-06T14:33:21.909Z,31.40
2018-04-06T14:35:50.133Z,31.30
2018-04-06T14:38:18.375Z,31.90
2018-04-06T14:40:46.590Z,30.80
2018-04-06T14:43:14.836Z,31.90
2018-04-06T14:45:43.064Z,32.70
2018-04-06T14:48:11.306Z,31.80
2018-04-06T14:50:39.537Z,32.20
2018-04-06T14:53:07.770Z,31.00
2018-04-06T14:55:36.755Z,30.90
2018-04-06T14:58:05.763Z,31.90
2018-04-06T15:00:34.756Z,32.80
2018-04-06T15:03:02.998Z,32.90
2018-04-06T15:05:31.221Z,32.70
2018-04-06T15:07:59.468Z,29.40
2018-04-06T15:10:28.469Z,32.70
2018-04-06T15:12:57.465Z,33.10
2018-04-06T15:15:25.689Z,33.00
2018-04-06T15:17:53.937Z,30.50
2018-04-06T15:20:22.472Z,31.00
2018-04-06T15:22:50.704Z,30.40
2018-04-06T15:25:18.928Z,31.40
2018-04-06T15:27:47.964Z,29.90
2018-04-06T15:30:16.196Z,29.90
2018-04-06T15:32:45.196Z,30.30
2018-04-06T15:35:13.424Z,30.40
2018-04-06T15:37:41.660Z,29.40
2018-04-06T15:40:09.912Z,30.50
2018-04-06T15:42:38.908Z,29.90
2018-04-06T15:45:07.160Z,29.90
2018-04-06T15:47:35.380Z,31.60
2018-04-06T15:50:03.632Z,30.20
2018-04-06T15:52:31.870Z,30.40
2018-04-06T15:55:00.285Z,29.80
2018-04-06T15:57:28.532Z,31.70
2018-04-06T15:59:56.800Z,32.00
2018-04-06T16:02:25.033Z,31.70
2018-04-06T16:04:53.271Z,31.70
2018-04-06T16:07:21.501Z,31.40
2018-04-06T16:09:50.010Z,31.80
2018-04-06T16:12:18.236Z,29.70
2018-04-06T16:14:46.485Z,30.00
2018-04-06T16:17:14.708Z,30.80
2018-04-06T16:19:42.957Z,36.40
2018-04-06T16:22:11.953Z,45.60
2018-04-06T16:24:40.201Z,45.70
2018-04-06T16:27:08.457Z,46.10
2018-04-06T16:29:37.459Z,41.30
2018-04-06T16:32:05.692Z,41.30
2018-04-06T16:34:33.940Z,38.10
2018-04-06T16:37:02.180Z,40.70
2018-04-06T16:39:30.441Z,40.10
2018-04-06T16:41:59.424Z,40.80
2018-04-06T16:44:28.418Z,39.20
2018-04-06T16:46:57.426Z,39.60
2018-04-06T16:49:26.421Z,44.00
2018-04-06T16:51:54.668Z,44.10
2018-04-06T16:54:23.715Z,48.90
2018-04-06T16:56:51.938Z,48.90
2018-04-06T16:59:20.928Z,50.50
2018-04-06T17:01:49.944Z,50.20
2018-04-06T17:04:18.156Z,50.20
2018-04-06T17:06:46.397Z,50.70
2018-04-06T17:09:14.621Z,51.00
2018-04-06T17:11:42.869Z,51.20
2018-04-06T17:14:11.100Z,51.50
2018-04-06T17:16:39.343Z,51.80
2018-04-06T17:19:07.753Z,52.10
2018-04-06T17:21:36.454Z,52.40
2018-04-06T17:24:05.900Z,52.20
2018-04-06T17:26:34.687Z,52.10
2018-04-06T17:29:04.201Z,54.00
2018-04-06T17:31:32.802Z,53.90
2018-04-06T17:34:01.572Z,53.90
2018-04-06T17:36:30.150Z,55.40
2018-04-06T17:38:58.663Z,54.70
2018-04-06T17:41:27.735Z,55.00
2018-04-06T17:43:56.315Z,55.00
2018-04-06T17:46:24.651Z,54.70
2018-04-06T17:48:53.311Z,55.90
2018-04-06T17:51:22.271Z,54.60
2018-04-06T17:53:51.011Z,54.50
2018-04-06T17:56:19.786Z,55.70
2018-04-06T17:58:48.513Z,55.80
2018-04-06T18:01:16.950Z,56.90
2018-04-06T18:03:46.147Z,56.80
2018-04-06T18:06:14.796Z,56.70
2018-04-06T18:08:43.536Z,57.00
2018-04-06T18:11:12.580Z,55.90
2018-04-06T18:13:40.845Z,55.90
2018-04-06T18:16:09.051Z,56.40
2018-04-06T18:18:37.304Z,55.70
2018-04-06T18:21:05.544Z,56.80
2018-04-06T18:23:33.790Z,56.00
2018-04-06T18:26:02.016Z,55.60
2018-04-06T18:28:31.073Z,55.70
2018-04-06T18:30:59.647Z,55.60
2018-04-06T18:33:27.885Z,56.30
2018-04-06T18:35:56.132Z,56.00
2018-04-06T18:38:24.394Z,57.20
2018-04-06T18:40:52.924Z,57.30
2018-04-06T18:43:21.100Z,58.10
2018-04-06T18:45:49.320Z,57.30
2018-04-06T18:48:17.552Z,57.90
2018-04-06T18:50:45.793Z,58.10
2018-04-06T18:53:14.792Z,58.80
2018-04-06T18:55:43.016Z,58.80
2018-04-06T18:58:11.253Z,58.80
2018-04-06T19:00:39.606Z,59.70
2018-04-06T19:03:07.947Z,60.30
2018-04-06T19:05:36.143Z,60.60
2018-04-06T19:08:05.150Z,61.20
2018-04-06T19:10:33.372Z,61.20
2018-04-06T19:13:01.602Z,61.50
2018-04-06T19:15:29.897Z,61.70
2018-04-06T19:17:58.118Z,62.80
2018-04-06T19:20:26.349Z,62.30
2018-04-06T19:22:54.565Z,62.40
2018-04-06T19:25:22.810Z,62.70
2018-04-06T19:27:51.030Z,63.20
2018-04-06T19:30:20.024Z,63.30
2018-04-06T19:32:48.248Z,63.30
2018-04-06T19:35:17.243Z,65.00
2018-04-06T19:37:46.988Z,65.90
2018-04-06T19:40:16.004Z,66.30
2018-04-06T19:42:44.235Z,66.30
2018-04-06T19:45:12.464Z,67.40
2018-04-06T19:47:40.736Z,66.90
2018-04-06T19:50:08.934Z,66.40
2018-04-06T19:52:37.929Z,67.60
2018-04-06T19:55:06.937Z,66.80
2018-04-06T19:57:35.152Z,66.80
2018-04-06T20:00:03.384Z,67.20
2018-04-06T20:02:31.625Z,66.70
2018-04-06T20:04:59.840Z,68.20
2018-04-06T20:07:28.076Z,68.20
2018-04-06T20:09:56.292Z,67.50
2018-04-06T20:12:25.314Z,66.30
2018-04-06T20:14:53.541Z,66.30
2018-04-06T20:17:21.775Z,65.80
2018-04-06T20:19:49.991Z,65.80
2018-04-06T20:22:19.048Z,65.10
2018-04-06T20:24:47.266Z,65.00
2018-04-06T20:27:15.500Z,64.80
2018-04-06T20:29:43.723Z,64.30
2018-04-06T20:32:12.724Z,65.00
2018-04-06T20:34:40.954Z,65.00
2018-04-06T20:37:09.190Z,64.30
2018-04-06T20:39:37.421Z,65.30
2018-04-06T20:42:05.664Z,64.70
2018-04-06T20:44:33.875Z,64.50
2018-04-06T20:47:02.865Z,64.80
2018-04-06T20:49:31.125Z,64.80
2018-04-06T20:51:59.338Z,64.70
2018-04-06T20:54:27.579Z,65.60
2018-04-06T20:56:55.801Z,64.40
2018-04-06T20:59:24.046Z,64.00
2018-04-06T21:01:52.240Z,65.30
2018-04-06T21:04:20.471Z,65.00
2018-04-06T21:06:48.687Z,65.20
2018-04-06T21:09:16.928Z,65.20
2018-04-06T21:11:45.149Z,65.60
2018-04-06T21:14:13.384Z,65.30
2018-04-06T21:16:42.391Z,65.40
2018-04-06T21:19:10.632Z,66.20
2018-04-06T21:21:38.857Z,65.40
2018-04-06T21:24:07.084Z,65.90
2018-04-06T21:26:36.068Z,66.50
2018-04-06T21:29:04.310Z,66.40
2018-04-06T21:31:32.533Z,66.20
2018-04-06T21:34:01.533Z,67.60
2018-04-06T21:36:29.763Z,67.40
2018-04-06T21:38:57.993Z,66.70
2018-04-06T21:41:26.212Z,67.20
2018-04-06T21:43:54.468Z,66.10
2018-04-06T21:46:22.676Z,66.10
2018-04-06T21:48:50.896Z,66.70
2018-04-06T21:51:19.140Z,66.40
2018-04-06T21:53:48.125Z,66.80
2018-04-06T21:56:17.128Z,65.30
2018-04-06T21:58:46.118Z,65.60
2018-04-06T22:01:15.111Z,65.80
2018-04-06T22:03:44.100Z,65.90
2018-04-06T22:06:13.100Z,63.90
2018-04-06T22:08:41.324Z,63.90
2018-04-06T22:11:09.556Z,61.80
2018-04-06T22:13:37.786Z,61.90
2018-04-06T22:16:06.020Z,60.60
2018-04-06T22:18:34.229Z,60.00
2018-04-06T22:21:02.460Z,58.80
2018-04-06T22:23:30.684Z,59.10
2018-04-06T22:25:58.912Z,59.00
2018-04-06T22:28:27.144Z,58.80
2018-04-06T22:30:56.632Z,58.20
2018-04-06T22:33:24.824Z,58.10
2018-04-06T22:35:53.825Z,57.20
2018-04-06T22:38:22.804Z,57.30
2018-04-06T22:40:51.804Z,56.80
2018-04-06T22:43:20.803Z,57.10
2018-04-06T22:45:49.055Z,57.10
2018-04-06T22:48:17.268Z,56.60
2018-04-06T22:50:45.502Z,56.10
2018-04-06T22:53:13.716Z,55.60
2018-04-06T22:55:41.961Z,55.50
2018-04-06T22:58:10.957Z,55.20
2018-04-06T23:00:39.944Z,55.20
2018-04-06T23:03:09.092Z,55.70
2018-04-06T23:05:37.327Z,55.70
2018-04-06T23:08:05.568Z,55.30
2018-04-06T23:10:33.789Z,54.80
2018-04-06T23:13:02.017Z,54.40
2018-04-06T23:15:30.232Z,54.30
2018-04-06T23:17:58.469Z,54.10
2018-04-06T23:20:27.456Z,54.40
2018-04-06T23:22:55.688Z,54.30
2018-04-06T23:25:23.899Z,55.20
2018-04-06T23:27:52.140Z,55.20
2018-04-06T23:30:20.364Z,55.40
2018-04-06T23:32:49.361Z,55.20
2018-04-06T23:35:17.580Z,55.20
2018-04-06T23:37:45.812Z,56.40
2018-04-06T23:40:14.032Z,57.10
2018-04-06T23:42:42.269Z,57.00
2018-04-06T23:45:10.489Z,57.20
2018-04-06T23:47:38.727Z,57.30
2018-04-06T23:50:06.944Z,57.00
2018-04-06T23:52:35.176Z,58.40
2018-04-06T23:55:03.399Z,58.50
2018-04-06T23:57:31.636Z,59.00
2018-04-06T23:59:59.864Z,58.40
